createdAt,value
2017-12-31T00:00:42.725Z,0.50
2017-12-31T00:03:10.893Z,0.50
2017-12-31T00:05:39.063Z,0.50
2017-12-31T00:08:07.999Z,0.50
2017-12-31T00:10:36.174Z,0.40
2017-12-31T00:13:04.352Z,0.50
2017-12-31T00:15:32.509Z,0.40
2017-12-31T00:18:00.669Z,0.40
2017-12-31T00:20:28.854Z,0.40
2017-12-31T00:22:57.030Z,0.40
2017-12-31T00:25:25.238Z,0.40
2017-12-31T00:27:53.406Z,0.40
2017-12-31T00:30:21.564Z,0.40
2017-12-31T00:32:49.740Z,0.40
2017-12-31T00:35:17.946Z,0.40
2017-12-31T00:37:46.119Z,0.40
2017-12-31T00:40:14.303Z,0.40
2017-12-31T00:42:42.462Z,0.40
2017-12-31T00:45:10.638Z,0.30
2017-12-31T00:47:38.807Z,0.30
2017-12-31T00:50:07.001Z,0.30
2017-12-31T00:52:35.175Z,0.30
2017-12-31T00:55:03.355Z,0.40
2017-12-31T00:57:32.293Z,0.30
2017-12-31T01:00:00.449Z,0.30
2017-12-31T01:02:28.611Z,0.30
2017-12-31T01:04:57.554Z,0.30
2017-12-31T01:07:25.718Z,0.20
2017-12-31T01:09:53.918Z,0.30
2017-12-31T01:12:22.096Z,0.30
2017-12-31T01:14:50.258Z,0.30
2017-12-31T01:17:18.421Z,0.30
2017-12-31T01:19:46.595Z,0.40
2017-12-31T01:22:14.808Z,0.40
2017-12-31T01:24:42.984Z,0.30
2017-12-31T01:27:11.922Z,0.30
2017-12-31T01:29:40.092Z,0.30
2017-12-31T01:32:08.285Z,0.40
2017-12-31T01:34:36.445Z,0.40
2017-12-31T01:37:05.482Z,0.50
2017-12-31T01:39:33.677Z,0.50
2017-12-31T01:42:02.607Z,0.60
2017-12-31T01:44:30.767Z,0.60
2017-12-31T01:46:58.941Z,0.70
2017-12-31T01:49:27.115Z,0.70
2017-12-31T01:51:55.286Z,0.80
2017-12-31T01:54:23.460Z,0.80
2017-12-31T01:56:51.654Z,0.80
2017-12-31T01:59:19.828Z,0.70
2017-12-31T02:01:48.003Z,0.80
2017-12-31T02:04:16.163Z,0.80
2017-12-31T02:06:44.333Z,0.80
2017-12-31T02:09:12.508Z,0.70
2017-12-31T02:11:40.675Z,0.70
2017-12-31T02:14:08.877Z,0.70
2017-12-31T02:16:37.029Z,0.70
2017-12-31T02:19:05.200Z,0.70
2017-12-31T02:21:33.402Z,0.70
2017-12-31T02:24:01.567Z,0.70
2017-12-31T02:26:29.743Z,0.70
2017-12-31T02:28:57.917Z,0.80
2017-12-31T02:31:26.082Z,0.80
2017-12-31T02:33:54.271Z,0.80
2017-12-31T02:36:22.467Z,0.80
2017-12-31T02:38:50.675Z,0.90
2017-12-31T02:41:18.845Z,0.90
2017-12-31T02:43:47.783Z,0.90
2017-12-31T02:46:15.962Z,0.80
2017-12-31T02:48:44.158Z,0.90
2017-12-31T02:51:12.346Z,0.90
2017-12-31T02:53:40.567Z,1.00
2017-12-31T02:56:09.482Z,1.10
2017-12-31T02:58:37.657Z,1.10
2017-12-31T03:01:05.813Z,1.10
2017-12-31T03:03:33.990Z,1.20
2017-12-31T03:06:02.150Z,1.30
2017-12-31T03:08:31.069Z,1.50
2017-12-31T03:10:59.230Z,1.50
2017-12-31T03:13:27.397Z,1.60
2017-12-31T03:15:55.550Z,1.70
2017-12-31T03:18:24.485Z,1.90
2017-12-31T03:20:52.675Z,1.80
2017-12-31T03:23:20.826Z,1.90
2017-12-31T03:25:49.021Z,2.00
2017-12-31T03:28:17.185Z,2.00
2017-12-31T03:30:45.338Z,2.10
2017-12-31T03:33:13.502Z,2.10
2017-12-31T03:35:42.426Z,2.20
2017-12-31T03:38:10.585Z,2.20
2017-12-31T03:40:38.770Z,2.30
2017-12-31T03:43:06.929Z,2.30
2017-12-31T03:45:35.119Z,2.30
2017-12-31T03:48:03.307Z,2.30
2017-12-31T03:50:31.469Z,2.30
2017-12-31T03:52:59.642Z,2.40
2017-12-31T03:55:27.831Z,2.20
2017-12-31T03:57:55.992Z,1.90
2017-12-31T04:00:24.186Z,1.70
2017-12-31T04:02:52.365Z,1.50
2017-12-31T04:05:20.562Z,1.30
2017-12-31T04:07:48.726Z,1.20
2017-12-31T04:10:16.919Z,1.00
2017-12-31T04:12:45.088Z,0.90
2017-12-31T04:15:13.270Z,0.90
2017-12-31T04:17:42.206Z,0.90
2017-12-31T04:20:10.393Z,0.80
2017-12-31T04:22:38.558Z,0.90
2017-12-31T04:25:06.728Z,0.90
2017-12-31T04:27:34.920Z,0.90
2017-12-31T04:30:03.106Z,0.90
2017-12-31T04:32:31.261Z,0.90
2017-12-31T04:34:59.417Z,0.90
2017-12-31T04:37:27.588Z,0.80
2017-12-31T04:39:55.752Z,0.80
2017-12-31T04:42:23.913Z,0.80
2017-12-31T04:44:52.849Z,0.80
2017-12-31T04:47:21.021Z,0.70
2017-12-31T04:49:49.182Z,0.90
2017-12-31T04:52:17.337Z,0.90
2017-12-31T04:54:46.269Z,0.90
2017-12-31T04:57:14.461Z,0.80
2017-12-31T04:59:42.645Z,0.90
2017-12-31T05:02:10.817Z,0.90
2017-12-31T05:04:38.985Z,0.90
2017-12-31T05:07:07.153Z,1.00
2017-12-31T05:09:35.313Z,1.00
2017-12-31T05:12:03.490Z,1.00
2017-12-31T05:14:31.659Z,1.00
2017-12-31T05:16:59.818Z,1.00
2017-12-31T05:19:27.980Z,1.00
2017-12-31T05:21:56.178Z,1.00
2017-12-31T05:24:24.386Z,1.00
2017-12-31T05:26:52.541Z,1.00
2017-12-31T05:29:20.705Z,1.00
2017-12-31T05:31:48.861Z,1.00
2017-12-31T05:34:17.033Z,1.00
2017-12-31T05:36:45.194Z,1.00
2017-12-31T05:39:14.141Z,1.10
2017-12-31T05:41:42.306Z,1.00
2017-12-31T05:44:10.466Z,1.10
2017-12-31T05:46:38.638Z,1.10
2017-12-31T05:49:06.789Z,1.20
2017-12-31T05:51:34.995Z,1.20
2017-12-31T05:54:03.182Z,1.20
2017-12-31T05:56:31.357Z,1.10
2017-12-31T05:58:59.520Z,1.10
2017-12-31T06:01:27.710Z,1.10
2017-12-31T06:03:56.081Z,1.10
2017-12-31T06:06:24.239Z,1.10
2017-12-31T06:08:52.397Z,1.20
2017-12-31T06:11:20.598Z,1.20
2017-12-31T06:13:48.790Z,1.20
2017-12-31T06:16:16.953Z,1.10
2017-12-31T06:18:45.112Z,1.10
2017-12-31T06:21:13.288Z,1.20
2017-12-31T06:23:41.478Z,1.20
2017-12-31T06:26:09.642Z,1.20
2017-12-31T06:28:37.808Z,1.20
2017-12-31T06:31:05.985Z,1.20
2017-12-31T06:33:34.159Z,1.20
2017-12-31T06:36:02.319Z,1.20
2017-12-31T06:38:30.474Z,1.20
2017-12-31T06:40:59.433Z,1.20
2017-12-31T06:43:27.618Z,1.20
2017-12-31T06:45:55.781Z,1.20
2017-12-31T06:48:23.937Z,1.20
2017-12-31T06:50:52.130Z,1.20
2017-12-31T06:53:20.330Z,1.20
2017-12-31T06:55:49.263Z,1.20
2017-12-31T06:58:17.417Z,1.20
2017-12-31T07:00:45.584Z,1.30
2017-12-31T07:03:13.751Z,1.30
2017-12-31T07:05:42.678Z,1.40
2017-12-31T07:08:10.860Z,1.40
2017-12-31T07:10:39.024Z,1.40
2017-12-31T07:13:07.185Z,1.40
2017-12-31T07:15:35.345Z,1.40
2017-12-31T07:18:04.287Z,1.30
2017-12-31T07:20:32.449Z,1.30
2017-12-31T07:23:00.616Z,1.30
2017-12-31T07:25:28.804Z,1.40
2017-12-31T07:27:56.971Z,1.40
2017-12-31T07:30:25.148Z,1.30
2017-12-31T07:32:53.320Z,1.40
2017-12-31T07:35:21.477Z,1.50
2017-12-31T07:37:49.634Z,1.50
2017-12-31T07:40:18.563Z,1.50
2017-12-31T07:42:46.741Z,1.50
2017-12-31T07:45:14.898Z,1.60
2017-12-31T07:47:43.066Z,1.60
2017-12-31T07:50:11.225Z,1.60
2017-12-31T07:52:40.148Z,1.60
2017-12-31T07:55:08.335Z,1.50
2017-12-31T07:57:36.492Z,1.70
2017-12-31T08:00:04.657Z,1.70
2017-12-31T08:02:32.846Z,1.80
2017-12-31T08:05:01.039Z,2.00
2017-12-31T08:07:29.212Z,2.20
2017-12-31T08:09:57.393Z,2.20
2017-12-31T08:12:25.557Z,2.30
2017-12-31T08:14:53.714Z,2.30
2017-12-31T08:17:21.883Z,2.40
2017-12-31T08:19:50.073Z,2.50
2017-12-31T08:22:18.238Z,2.60
2017-12-31T08:24:46.407Z,2.80
2017-12-31T08:27:14.561Z,2.90
2017-12-31T08:29:43.495Z,2.80
2017-12-31T08:32:11.696Z,2.80
2017-12-31T08:34:39.856Z,2.90
2017-12-31T08:37:08.014Z,3.00
2017-12-31T08:39:36.176Z,3.00
2017-12-31T08:42:04.350Z,3.00
2017-12-31T08:44:32.509Z,3.00
2017-12-31T08:47:00.685Z,3.10
2017-12-31T08:49:28.842Z,3.10
2017-12-31T08:51:57.764Z,2.70
2017-12-31T08:54:25.958Z,2.70
2017-12-31T08:56:54.117Z,2.60
2017-12-31T08:59:22.277Z,2.50
2017-12-31T09:01:50.435Z,2.60
2017-12-31T09:04:19.372Z,2.70
2017-12-31T09:06:47.527Z,2.70
2017-12-31T09:09:15.775Z,2.90
2017-12-31T09:11:43.920Z,2.90
2017-12-31T09:14:12.142Z,3.00
2017-12-31T09:16:40.269Z,3.20
2017-12-31T09:19:08.438Z,3.30
2017-12-31T09:21:36.627Z,3.40
2017-12-31T09:24:05.578Z,3.80
2017-12-31T09:26:33.742Z,3.80
2017-12-31T09:29:01.906Z,4.00
2017-12-31T09:31:30.092Z,4.10
2017-12-31T09:33:58.278Z,4.20
2017-12-31T09:36:26.444Z,4.30
2017-12-31T09:38:54.626Z,4.40
2017-12-31T09:41:22.802Z,4.50
2017-12-31T09:43:50.978Z,4.70
2017-12-31T09:46:19.154Z,4.80
2017-12-31T09:48:47.327Z,5.00
2017-12-31T09:51:15.523Z,5.10
2017-12-31T09:53:43.686Z,5.20
2017-12-31T09:56:11.845Z,5.40
2017-12-31T09:58:40.015Z,5.50
2017-12-31T10:01:08.183Z,5.70
2017-12-31T10:03:36.349Z,5.90
2017-12-31T10:06:04.514Z,6.20
2017-12-31T10:08:32.673Z,6.60
2017-12-31T10:11:01.612Z,7.20
2017-12-31T10:13:29.835Z,7.20
2017-12-31T10:15:57.966Z,7.60
2017-12-31T10:18:26.125Z,7.90
2017-12-31T10:20:54.298Z,8.20
2017-12-31T10:23:22.505Z,8.60
2017-12-31T10:25:50.679Z,8.80
2017-12-31T10:28:18.841Z,9.20
2017-12-31T10:30:47.006Z,9.60
2017-12-31T10:33:15.174Z,10.00
2017-12-31T10:35:43.365Z,10.20
2017-12-31T10:38:11.533Z,10.40
2017-12-31T10:40:39.707Z,10.60
2017-12-31T10:43:07.871Z,11.60
2017-12-31T10:45:36.053Z,12.80
2017-12-31T10:48:04.326Z,15.30
2017-12-31T10:50:32.513Z,18.50
2017-12-31T10:53:00.682Z,21.60
2017-12-31T10:55:28.850Z,23.40
2017-12-31T10:57:57.025Z,24.90
2017-12-31T11:00:25.223Z,26.50
2017-12-31T11:02:53.405Z,27.10
2017-12-31T11:05:21.617Z,27.60
2017-12-31T11:07:50.553Z,28.40
2017-12-31T11:10:18.758Z,28.40
2017-12-31T11:12:46.941Z,28.70
2017-12-31T11:15:15.127Z,29.90
2017-12-31T11:17:44.128Z,30.30
2017-12-31T11:20:13.063Z,30.20
2017-12-31T11:22:41.265Z,30.10
2017-12-31T11:25:09.445Z,30.00
2017-12-31T11:27:37.655Z,30.00
2017-12-31T11:30:05.822Z,30.10
2017-12-31T11:32:34.801Z,27.90
2017-12-31T11:35:03.764Z,26.80
2017-12-31T11:37:31.983Z,26.80
2017-12-31T11:40:00.171Z,25.80
2017-12-31T11:42:28.342Z,25.80
2017-12-31T11:44:56.559Z,27.40
2017-12-31T11:47:24.747Z,28.90
2017-12-31T11:49:52.954Z,30.50
2017-12-31T11:52:21.889Z,32.10
2017-12-31T11:54:50.101Z,32.00
2017-12-31T11:57:18.323Z,31.00
2017-12-31T12:06:56.963Z,30.30
2017-12-31T12:09:25.128Z,30.40
2017-12-31T12:11:53.299Z,31.40
2017-12-31T12:14:21.461Z,31.20
2017-12-31T12:16:49.640Z,32.00
2017-12-31T12:19:17.814Z,32.70
2017-12-31T12:21:46.046Z,34.30
2017-12-31T12:24:14.965Z,34.20
2017-12-31T12:26:43.168Z,34.20
2017-12-31T12:29:11.361Z,35.00
2017-12-31T12:31:41.494Z,35.40
2017-12-31T12:34:09.690Z,35.40
2017-12-31T12:36:37.886Z,35.90
2017-12-31T12:39:06.114Z,37.80
2017-12-31T12:41:35.047Z,37.70
2017-12-31T12:44:03.218Z,37.60
2017-12-31T12:46:31.436Z,38.40
2017-12-31T12:49:00.377Z,39.60
2017-12-31T12:51:28.551Z,39.50
2017-12-31T12:53:56.761Z,39.50
2017-12-31T12:56:24.974Z,41.10
2017-12-31T12:58:53.914Z,40.60
2017-12-31T13:01:22.091Z,40.60
2017-12-31T13:03:51.059Z,38.70
2017-12-31T13:06:19.233Z,38.60
2017-12-31T13:08:47.409Z,38.80
2017-12-31T13:11:15.580Z,37.40
2017-12-31T13:13:43.765Z,37.30
2017-12-31T13:16:11.954Z,37.20
2017-12-31T13:18:40.125Z,36.30
2017-12-31T13:21:08.292Z,35.50
2017-12-31T13:23:36.467Z,35.60
2017-12-31T13:26:04.632Z,35.80
2017-12-31T13:28:32.801Z,35.00
2017-12-31T13:31:00.965Z,33.00
2017-12-31T13:33:29.130Z,30.30
2017-12-31T13:35:57.297Z,28.70
2017-12-31T13:38:26.230Z,27.10
2017-12-31T13:40:54.402Z,27.00
2017-12-31T13:43:22.590Z,26.50
2017-12-31T13:45:50.794Z,25.30
2017-12-31T13:48:18.967Z,24.70
2017-12-31T13:50:47.170Z,23.30
2017-12-31T13:53:16.113Z,21.10
2017-12-31T13:55:44.280Z,21.00
2017-12-31T13:58:12.451Z,20.80
2017-12-31T14:00:40.618Z,20.60
2017-12-31T14:03:08.796Z,20.20
2017-12-31T14:05:36.978Z,19.90
2017-12-31T14:08:05.154Z,19.50
2017-12-31T14:10:33.328Z,19.00
2017-12-31T14:13:01.540Z,19.50
2017-12-31T14:15:30.879Z,21.80
2017-12-31T14:17:59.059Z,21.70
2017-12-31T14:20:27.244Z,22.40
2017-12-31T14:22:55.455Z,22.50
2017-12-31T14:25:23.647Z,22.10
2017-12-31T14:27:52.590Z,20.50
2017-12-31T14:30:20.775Z,20.40
2017-12-31T14:32:48.982Z,19.10
2017-12-31T14:35:17.946Z,17.00
2017-12-31T14:37:46.132Z,16.80
2017-12-31T14:40:14.305Z,16.00
2017-12-31T14:42:42.477Z,15.20
2017-12-31T14:45:10.653Z,14.50
2017-12-31T14:47:38.822Z,13.90
2017-12-31T14:50:07.003Z,13.40
2017-12-31T14:52:36.010Z,12.70
2017-12-31T14:55:04.233Z,12.70
2017-12-31T14:57:32.460Z,12.40
2017-12-31T15:00:01.409Z,11.70
2017-12-31T15:02:29.588Z,11.60
2017-12-31T15:04:57.767Z,11.40
2017-12-31T15:07:25.960Z,11.00
2017-12-31T15:09:54.896Z,10.60
2017-12-31T15:12:23.078Z,10.50
2017-12-31T15:14:51.284Z,10.40
2017-12-31T15:17:19.531Z,10.30
2017-12-31T15:19:47.699Z,10.10
2017-12-31T15:22:15.878Z,10.00
2017-12-31T15:24:44.058Z,10.00
2017-12-31T15:27:12.226Z,9.90
2017-12-31T15:29:40.682Z,9.80
2017-12-31T15:32:09.630Z,9.60
2017-12-31T15:34:37.790Z,9.50
2017-12-31T15:37:05.957Z,9.50
2017-12-31T15:39:34.121Z,9.40
2017-12-31T15:42:02.330Z,9.30
2017-12-31T15:44:30.494Z,9.20
2017-12-31T15:46:58.661Z,9.10
2017-12-31T15:49:26.872Z,9.00
2017-12-31T15:51:55.020Z,8.90
2017-12-31T15:54:23.281Z,8.80
2017-12-31T15:56:51.454Z,8.70
2017-12-31T15:59:19.625Z,8.60
2017-12-31T16:01:47.779Z,8.50
2017-12-31T16:04:16.705Z,8.30
2017-12-31T16:06:44.883Z,8.20
2017-12-31T16:09:13.049Z,8.30
2017-12-31T16:11:41.242Z,8.20
2017-12-31T16:14:09.403Z,8.10
2017-12-31T16:16:37.591Z,8.00
2017-12-31T16:19:05.773Z,7.90
2017-12-31T16:21:33.974Z,7.70
2017-12-31T16:24:03.023Z,7.60
2017-12-31T16:26:31.198Z,7.50
2017-12-31T16:28:59.384Z,7.60
2017-12-31T16:31:27.560Z,7.50
2017-12-31T16:33:55.906Z,7.40
2017-12-31T16:36:24.833Z,7.30
2017-12-31T16:38:53.004Z,7.30
2017-12-31T16:41:21.171Z,7.30
2017-12-31T16:43:49.330Z,7.30
2017-12-31T16:46:18.273Z,7.20
2017-12-31T16:48:46.478Z,7.10
2017-12-31T16:51:14.681Z,7.20
2017-12-31T16:53:43.599Z,7.00
2017-12-31T16:56:11.778Z,6.90
2017-12-31T16:58:39.978Z,6.90
2017-12-31T17:01:08.154Z,6.90
2017-12-31T17:03:36.331Z,6.80
2017-12-31T17:06:04.498Z,6.80
2017-12-31T17:08:32.681Z,6.80
2017-12-31T17:11:00.878Z,6.80
2017-12-31T17:13:29.812Z,6.70
2017-12-31T17:15:57.969Z,6.60
2017-12-31T17:18:26.136Z,6.60
2017-12-31T17:20:54.331Z,6.60
2017-12-31T17:23:22.536Z,6.60
2017-12-31T17:25:50.745Z,6.50
2017-12-31T17:28:19.699Z,6.40
2017-12-31T17:30:47.902Z,6.40
2017-12-31T17:33:16.124Z,6.40
2017-12-31T17:35:44.305Z,6.40
2017-12-31T17:38:12.473Z,6.40
2017-12-31T17:40:40.676Z,6.30
2017-12-31T17:43:08.854Z,6.30
2017-12-31T17:45:37.099Z,6.20
2017-12-31T17:48:05.331Z,6.20
2017-12-31T17:50:34.268Z,6.10
2017-12-31T17:53:02.430Z,6.00
2017-12-31T17:55:30.617Z,6.00
2017-12-31T17:57:58.802Z,6.00
2017-12-31T18:00:26.975Z,5.90
2017-12-31T18:02:55.138Z,5.90
2017-12-31T18:05:23.389Z,5.80
2017-12-31T18:07:51.527Z,5.80
2017-12-31T18:10:19.689Z,5.80
2017-12-31T18:12:47.868Z,5.80
2017-12-31T18:15:16.050Z,5.80
2017-12-31T18:17:44.222Z,5.80
2017-12-31T18:20:12.385Z,5.80
2017-12-31T18:22:40.585Z,5.80
2017-12-31T18:25:08.760Z,5.70
2017-12-31T18:27:36.933Z,5.70
2017-12-31T18:30:05.141Z,5.60
2017-12-31T18:32:33.337Z,5.60
2017-12-31T18:35:01.509Z,5.60
2017-12-31T18:37:29.668Z,5.60
2017-12-31T18:39:57.877Z,5.60
2017-12-31T18:42:26.071Z,5.50
2017-12-31T18:44:54.249Z,5.40
2017-12-31T18:47:22.424Z,5.30
2017-12-31T18:49:50.591Z,5.30
2017-12-31T18:52:18.794Z,5.20
2017-12-31T18:54:46.991Z,5.20
2017-12-31T18:57:15.155Z,5.20
2017-12-31T18:59:44.086Z,5.10
2017-12-31T19:02:12.285Z,5.00
2017-12-31T19:04:40.470Z,5.00
2017-12-31T19:07:08.645Z,5.00
2017-12-31T19:09:36.809Z,5.00
2017-12-31T19:12:04.979Z,4.90
2017-12-31T19:14:33.143Z,4.90
2017-12-31T19:17:01.324Z,4.90
2017-12-31T19:19:29.481Z,4.80
2017-12-31T19:21:57.649Z,4.80
2017-12-31T19:24:25.813Z,4.80
2017-12-31T19:26:54.010Z,4.80
2017-12-31T19:29:22.180Z,4.80
2017-12-31T19:31:50.348Z,4.70
2017-12-31T19:34:18.620Z,4.70
2017-12-31T19:36:46.771Z,4.70
2017-12-31T19:39:15.788Z,4.60
2017-12-31T19:41:43.951Z,4.60
2017-12-31T19:44:12.123Z,4.60
2017-12-31T19:46:40.282Z,4.60
2017-12-31T19:49:09.218Z,4.70
2017-12-31T19:51:37.376Z,4.60
2017-12-31T19:54:05.550Z,4.70
2017-12-31T19:56:33.713Z,4.60
2017-12-31T19:59:01.888Z,4.60
2017-12-31T20:01:30.053Z,4.50
2017-12-31T20:03:58.241Z,4.50
2017-12-31T20:06:26.399Z,4.50
2017-12-31T20:08:54.561Z,4.40
2017-12-31T20:11:23.488Z,4.40
2017-12-31T20:13:51.645Z,4.30
2017-12-31T20:16:19.823Z,4.40
2017-12-31T20:18:48.024Z,4.40
2017-12-31T20:21:16.187Z,4.40
2017-12-31T20:23:44.361Z,4.40
2017-12-31T20:26:12.567Z,4.30
2017-12-31T20:28:40.765Z,4.30
2017-12-31T20:31:09.704Z,4.30
2017-12-31T20:33:37.893Z,4.20
2017-12-31T20:36:06.155Z,4.30
2017-12-31T20:38:34.342Z,4.30
2017-12-31T20:41:02.528Z,4.20
2017-12-31T20:43:30.694Z,4.20
2017-12-31T20:45:58.910Z,4.10
2017-12-31T20:48:27.866Z,4.00
2017-12-31T20:50:56.031Z,4.00
2017-12-31T20:53:24.226Z,4.00
2017-12-31T20:55:52.402Z,4.00
2017-12-31T20:58:20.626Z,4.00
2017-12-31T21:00:48.798Z,4.00
2017-12-31T21:03:16.972Z,4.00
2017-12-31T21:05:45.141Z,3.90
2017-12-31T21:08:14.090Z,3.90
2017-12-31T21:10:42.256Z,3.90
2017-12-31T21:13:10.550Z,4.00
2017-12-31T21:15:38.760Z,3.90
2017-12-31T21:18:06.964Z,3.90
2017-12-31T21:20:35.158Z,3.90
2017-12-31T21:23:04.098Z,4.00
2017-12-31T21:25:32.299Z,3.90
2017-12-31T21:28:01.946Z,4.00
2017-12-31T21:30:30.177Z,3.90
2017-12-31T21:32:58.508Z,3.90
2017-12-31T21:35:26.749Z,3.90
2017-12-31T21:37:55.866Z,3.80
2017-12-31T21:40:24.073Z,3.80
2017-12-31T21:42:52.262Z,3.80
2017-12-31T21:45:20.424Z,3.80
2017-12-31T21:47:48.603Z,3.80
2017-12-31T21:50:16.972Z,3.80
2017-12-31T21:52:45.159Z,3.80
2017-12-31T21:55:13.423Z,3.80
2017-12-31T21:57:41.592Z,3.80
2017-12-31T22:00:09.781Z,3.70
2017-12-31T22:02:37.954Z,3.70
2017-12-31T22:05:06.120Z,3.70
2017-12-31T22:07:34.287Z,3.60
2017-12-31T22:10:02.451Z,3.60
2017-12-31T22:12:30.625Z,3.60
2017-12-31T22:14:58.782Z,3.60
2017-12-31T22:17:27.787Z,3.60
2017-12-31T22:19:55.961Z,3.50
2017-12-31T22:22:24.124Z,3.60
2017-12-31T22:24:53.067Z,3.70
2017-12-31T22:27:21.231Z,3.60
2017-12-31T22:29:49.429Z,3.70
2017-12-31T22:32:17.617Z,3.70
2017-12-31T22:34:45.786Z,3.70
2017-12-31T22:37:13.969Z,3.70
2017-12-31T22:39:42.147Z,3.60
2017-12-31T22:42:11.123Z,3.60
2017-12-31T22:44:39.341Z,3.50
2017-12-31T22:47:07.544Z,3.60
2017-12-31T22:49:35.839Z,3.60
2017-12-31T22:52:03.999Z,3.50
2017-12-31T22:54:32.169Z,3.50
2017-12-31T22:57:00.327Z,3.50
2017-12-31T22:59:28.649Z,3.50
2017-12-31T23:01:57.286Z,3.50
2017-12-31T23:04:25.540Z,3.40
2017-12-31T23:06:53.683Z,3.50
2017-12-31T23:09:21.878Z,3.50
2017-12-31T23:11:50.045Z,3.50
2017-12-31T23:14:18.211Z,3.50
2017-12-31T23:16:46.400Z,3.50
2017-12-31T23:19:14.570Z,3.50
2017-12-31T23:21:42.748Z,3.50
2017-12-31T23:24:10.924Z,3.50
2017-12-31T23:26:39.129Z,3.40
2017-12-31T23:29:07.308Z,3.30
2017-12-31T23:31:35.476Z,3.20
2017-12-31T23:34:03.655Z,3.10
2017-12-31T23:36:31.825Z,3.10
2017-12-31T23:38:59.989Z,3.10
2017-12-31T23:41:28.930Z,3.00
2017-12-31T23:43:57.097Z,3.00
2017-12-31T23:46:25.270Z,3.00
2017-12-31T23:48:53.434Z,3.00
2017-12-31T23:51:21.590Z,3.10
2017-12-31T23:53:49.761Z,3.20
2017-12-31T23:56:17.937Z,3.30
2017-12-31T23:58:46.103Z,3.30
